sensor_id;sensor_type;location;lat;lon;timestamp;pressure;altitude;pressure_sealevel;temperature;humidity
13612;BME280;6877;51.436;6.774;2023-05-24T00:00:09;101886.59;;;7.09;83.55
13612;BME280;6877;51.436;6.774;2023-05-24T00:02:39;101888.31;;;7.09;83.40
13612;BME280;6877;51.436;6.774;2023-05-24T00:05:08;101888.25;;;7.04;83.74
13612;BME280;6877;51.436;6.774;2023-05-24T00:07:37;101882.16;;;7.02;84.24
13612;BME280;6877;51.436;6.774;2023-05-24T00:10:05;101891.78;;;7.06;84.27
13612;BME280;6877;51.436;6.774;2023-05-24T00:12:37;101898.66;;;7.04;84.41
13612;BME280;6877;51.436;6.774;2023-05-24T00:15:03;101888.22;;;7.01;84.48
13612;BME280;6877;51.436;6.774;2023-05-24T00:17:35;101883.00;;;7.01;84.68
13612;BME280;6877;51.436;6.774;2023-05-24T00:20:08;101884.66;;;6.96;84.47
13612;BME280;6877;51.436;6.774;2023-05-24T00:22:41;101883.69;;;6.89;85.19
13612;BME280;6877;51.436;6.774;2023-05-24T00:25:12;101878.44;;;6.86;85.29
13612;BME280;6877;51.436;6.774;2023-05-24T00:27:39;101868.88;;;6.84;85.35
13612;BME280;6877;51.436;6.774;2023-05-24T00:30:10;101872.25;;;6.77;85.71
13612;BME280;6877;51.436;6.774;2023-05-24T00:32:37;101854.84;;;6.72;86.46
13612;BME280;6877;51.436;6.774;2023-05-24T00:35:04;101866.09;;;6.71;86.42
13612;BME280;6877;51.436;6.774;2023-05-24T00:37:30;101864.34;;;6.70;86.70
13612;BME280;6877;51.436;6.774;2023-05-24T00:39:57;101867.00;;;6.73;87.00
13612;BME280;6877;51.436;6.774;2023-05-24T00:42:23;101866.94;;;6.70;87.30
13612;BME280;6877;51.436;6.774;2023-05-24T00:44:55;101864.28;;;6.66;87.35
13612;BME280;6877;51.436;6.774;2023-05-24T00:47:21;101864.19;;;6.61;87.43
13612;BME280;6877;51.436;6.774;2023-05-24T00:49:48;101863.31;;;6.59;87.55
13612;BME280;6877;51.436;6.774;2023-05-24T00:52:15;101856.28;;;6.54;87.90
13612;BME280;6877;51.436;6.774;2023-05-24T00:54:42;101855.28;;;6.45;88.09
13612;BME280;6877;51.436;6.774;2023-05-24T00:57:09;101847.31;;;6.35;88.01
13612;BME280;6877;51.436;6.774;2023-05-24T00:59:36;101857.66;;;6.33;88.86
13612;BME280;6877;51.436;6.774;2023-05-24T01:02:02;101855.91;;;6.31;88.96
13612;BME280;6877;51.436;6.774;2023-05-24T01:04:29;101854.16;;;6.30;89.16
13612;BME280;6877;51.436;6.774;2023-05-24T01:12:52;101856.59;;;6.20;90.41
13612;BME280;6877;51.436;6.774;2023-05-24T01:18:17;101853.84;;;6.11;90.79
13612;BME280;6877;51.436;6.774;2023-05-24T01:21:00;101852.22;;;6.18;91.61
13612;BME280;6877;51.436;6.774;2023-05-24T01:26:39;101855.88;;;6.28;92.39
13612;BME280;6877;51.436;6.774;2023-05-24T01:29:08;101839.38;;;6.25;92.03
13612;BME280;6877;51.436;6.774;2023-05-24T01:31:35;101837.53;;;6.20;92.42
13612;BME280;6877;51.436;6.774;2023-05-24T01:34:02;101843.53;;;6.17;92.68
13612;BME280;6877;51.436;6.774;2023-05-24T01:36:28;101840.94;;;6.16;92.33
13612;BME280;6877;51.436;6.774;2023-05-24T01:38:55;101834.88;;;6.15;92.99
13612;BME280;6877;51.436;6.774;2023-05-24T01:46:37;101827.19;;;6.23;93.84
13612;BME280;6877;51.436;6.774;2023-05-24T01:51:46;101836.53;;;6.12;93.47
13612;BME280;6877;51.436;6.774;2023-05-24T01:54:15;101833.00;;;6.08;94.02
13612;BME280;6877;51.436;6.774;2023-05-24T01:56:51;101830.28;;;6.00;94.76
13612;BME280;6877;51.436;6.774;2023-05-24T01:59:21;101825.88;;;5.98;95.46
13612;BME280;6877;51.436;6.774;2023-05-24T02:01:53;101823.22;;;5.93;95.63
13612;BME280;6877;51.436;6.774;2023-05-24T02:04:20;101826.56;;;5.89;96.17
13612;BME280;6877;51.436;6.774;2023-05-24T02:06:46;101815.06;;;5.76;96.31
13612;BME280;6877;51.436;6.774;2023-05-24T02:09:12;101819.28;;;5.70;96.34
13612;BME280;6877;51.436;6.774;2023-05-24T02:11:39;101826.88;;;5.59;96.57
13612;BME280;6877;51.436;6.774;2023-05-24T02:14:10;101826.78;;;5.53;97.57
13612;BME280;6877;51.436;6.774;2023-05-24T02:16:38;101823.25;;;5.51;98.02
13612;BME280;6877;51.436;6.774;2023-05-24T02:19:08;101823.13;;;5.45;97.84
13612;BME280;6877;51.436;6.774;2023-05-24T02:21:34;101817.81;;;5.39;98.37
13612;BME280;6877;51.436;6.774;2023-05-24T02:24:01;101827.34;;;5.38;99.23
13612;BME280;6877;51.436;6.774;2023-05-24T02:26:28;101819.66;;;5.43;99.55
13612;BME280;6877;51.436;6.774;2023-05-24T02:28:54;101820.41;;;5.37;99.03
13612;BME280;6877;51.436;6.774;2023-05-24T02:31:21;101824.59;;;5.32;99.17
13612;BME280;6877;51.436;6.774;2023-05-24T02:33:47;101828.78;;;5.24;98.98
13612;BME280;6877;51.436;6.774;2023-05-24T02:36:18;101827.72;;;5.14;99.44
13612;BME280;6877;51.436;6.774;2023-05-24T02:38:45;101836.25;;;5.10;99.73
13612;BME280;6877;51.436;6.774;2023-05-24T02:41:11;101837.91;;;5.06;99.61
13612;BME280;6877;51.436;6.774;2023-05-24T02:43:46;101837.13;;;5.10;100.00
13612;BME280;6877;51.436;6.774;2023-05-24T02:46:13;101842.25;;;5.07;100.00
13612;BME280;6877;51.436;6.774;2023-05-24T02:48:40;101841.44;;;5.10;100.00
13612;BME280;6877;51.436;6.774;2023-05-24T02:51:11;101842.41;;;5.14;100.00
13612;BME280;6877;51.436;6.774;2023-05-24T02:53:38;101842.66;;;5.26;100.00
13612;BME280;6877;51.436;6.774;2023-05-24T02:56:04;101842.69;;;5.27;100.00
13612;BME280;6877;51.436;6.774;2023-05-24T02:58:32;101845.28;;;5.27;100.00
13612;BME280;6877;51.436;6.774;2023-05-24T03:00:59;101839.25;;;5.27;100.00
13612;BME280;6877;51.436;6.774;2023-05-24T03:03:30;101836.59;;;5.25;100.00
13612;BME280;6877;51.436;6.774;2023-05-24T03:05:56;101838.41;;;5.29;100.00
13612;BME280;6877;51.436;6.774;2023-05-24T03:08:23;101838.47;;;5.32;100.00
13612;BME280;6877;51.436;6.774;2023-05-24T03:10:49;101834.97;;;5.30;100.00
13612;BME280;6877;51.436;6.774;2023-05-24T03:13:16;101831.63;;;5.36;100.00
13612;BME280;6877;51.436;6.774;2023-05-24T03:15:47;101829.25;;;5.47;100.00
13612;BME280;6877;51.436;6.774;2023-05-24T03:18:19;101831.78;;;5.44;100.00
13612;BME280;6877;51.436;6.774;2023-05-24T03:20:50;101822.31;;;5.47;100.00
13612;BME280;6877;51.436;6.774;2023-05-24T03:23:17;101825.09;;;5.55;100.00
13612;BME280;6877;51.436;6.774;2023-05-24T03:25:43;101825.03;;;5.52;100.00
13612;BME280;6877;51.436;6.774;2023-05-24T03:28:10;101828.50;;;5.52;100.00
13612;BME280;6877;51.436;6.774;2023-05-24T03:30:39;101830.41;;;5.63;100.00
13612;BME280;6877;51.436;6.774;2023-05-24T03:33:06;101827.06;;;5.68;100.00
13612;BME280;6877;51.436;6.774;2023-05-24T03:35:32;101827.13;;;5.71;100.00
13612;BME280;6877;51.436;6.774;2023-05-24T03:37:59;101828.91;;;5.75;100.00
13612;BME280;6877;51.436;6.774;2023-05-24T03:40:25;101821.16;;;5.77;100.00
13612;BME280;6877;51.436;6.774;2023-05-24T03:42:59;101821.25;;;5.81;100.00
13612;BME280;6877;51.436;6.774;2023-05-24T03:45:26;101822.28;;;5.90;100.00
13612;BME280;6877;51.436;6.774;2023-05-24T03:47:52;101824.81;;;5.88;100.00
13612;BME280;6877;51.436;6.774;2023-05-24T03:50:19;101828.41;;;5.93;100.00
13612;BME280;6877;51.436;6.774;2023-05-24T03:52:45;101832.81;;;5.96;100.00
13612;BME280;6877;51.436;6.774;2023-05-24T03:55:13;101828.41;;;5.93;100.00
13612;BME280;6877;51.436;6.774;2023-05-24T03:57:40;101830.94;;;5.90;100.00
13612;BME280;6877;51.436;6.774;2023-05-24T04:00:08;101827.56;;;5.93;100.00
13612;BME280;6877;51.436;6.774;2023-05-24T04:02:37;101825.84;;;5.95;100.00
13612;BME280;6877;51.436;6.774;2023-05-24T04:05:05;101830.28;;;6.00;100.00
13612;BME280;6877;51.436;6.774;2023-05-24T04:07:36;101832.94;;;6.05;100.00
13612;BME280;6877;51.436;6.774;2023-05-24T04:10:04;101835.59;;;6.08;100.00
13612;BME280;6877;51.436;6.774;2023-05-24T04:12:31;101834.81;;;6.12;100.00
13612;BME280;6877;51.436;6.774;2023-05-24T04:14:58;101834.47;;;6.45;100.00
13612;BME280;6877;51.436;6.774;2023-05-24T04:17:29;101836.63;;;6.72;100.00
13612;BME280;6877;51.436;6.774;2023-05-24T04:20:00;101839.59;;;6.97;100.00
13612;BME280;6877;51.436;6.774;2023-05-24T04:22:26;101847.03;;;7.35;100.00
13612;BME280;6877;51.436;6.774;2023-05-24T04:24:58;101839.50;;;7.61;100.00
13612;BME280;6877;51.436;6.774;2023-05-24T04:27:24;101833.53;;;7.70;100.00
13612;BME280;6877;51.436;6.774;2023-05-24T04:29:51;101845.69;;;7.72;99.98
13612;BME280;6877;51.436;6.774;2023-05-24T04:32:18;101841.41;;;7.76;99.63
13612;BME280;6877;51.436;6.774;2023-05-24T04:34:45;101844.13;;;7.85;98.52
13612;BME280;6877;51.436;6.774;2023-05-24T04:37:11;101845.03;;;7.92;97.55
13612;BME280;6877;51.436;6.774;2023-05-24T04:39:43;101849.50;;;8.06;97.85
13612;BME280;6877;51.436;6.774;2023-05-24T04:42:11;101848.78;;;8.21;97.76
13612;BME280;6877;51.436;6.774;2023-05-24T04:44:41;101855.81;;;8.30;96.55
13612;BME280;6877;51.436;6.774;2023-05-24T04:47:07;101857.63;;;8.35;95.38
13612;BME280;6877;51.436;6.774;2023-05-24T04:49:35;101855.94;;;8.39;95.32
13612;BME280;6877;51.436;6.774;2023-05-24T04:52:01;101855.09;;;8.43;95.12
13612;BME280;6877;51.436;6.774;2023-05-24T04:54:28;101865.59;;;8.52;95.35
13612;BME280;6877;51.436;6.774;2023-05-24T04:56:54;101867.44;;;8.66;94.48
13612;BME280;6877;51.436;6.774;2023-05-24T04:59:21;101871.00;;;8.77;93.80
13612;BME280;6877;51.436;6.774;2023-05-24T05:01:47;101875.38;;;8.86;92.93
13612;BME280;6877;51.436;6.774;2023-05-24T05:04:14;101878.91;;;8.91;91.92
13612;BME280;6877;51.436;6.774;2023-05-24T05:06:41;101885.03;;;8.94;91.71
13612;BME280;6877;51.436;6.774;2023-05-24T05:09:09;101885.03;;;8.97;91.95
13612;BME280;6877;51.436;6.774;2023-05-24T05:11:38;101883.38;;;9.09;91.30
13612;BME280;6877;51.436;6.774;2023-05-24T05:14:05;101884.31;;;9.18;91.09
13612;BME280;6877;51.436;6.774;2023-05-24T05:16:34;101883.47;;;9.24;90.53
13612;BME280;6877;51.436;6.774;2023-05-24T05:19:06;101885.25;;;9.31;90.06
13612;BME280;6877;51.436;6.774;2023-05-24T05:21:33;101877.44;;;9.42;90.23
13612;BME280;6877;51.436;6.774;2023-05-24T05:24:05;101878.38;;;9.56;89.31
13612;BME280;6877;51.436;6.774;2023-05-24T05:26:36;101881.94;;;9.75;88.92
13612;BME280;6877;51.436;6.774;2023-05-24T05:29:02;101882.81;;;9.92;87.55
13612;BME280;6877;51.436;6.774;2023-05-24T05:31:29;101882.88;;;10.03;86.47
13612;BME280;6877;51.436;6.774;2023-05-24T05:33:56;101880.25;;;10.08;86.03
13612;BME280;6877;51.436;6.774;2023-05-24T05:36:22;101883.75;;;10.13;nan
13612;BME280;6877;51.436;6.774;2023-05-24T05:38:54;101878.53;;;10.25;86.15
13612;BME280;6877;51.436;6.774;2023-05-24T05:41:20;101879.44;;;10.49;85.04
13612;BME280;6877;51.436;6.774;2023-05-24T05:43:47;101871.56;;;10.79;84.63
13612;BME280;6877;51.436;6.774;2023-05-24T05:46:18;101870.69;;;10.94;83.99
13612;BME280;6877;51.436;6.774;2023-05-24T05:48:46;101875.88;;;11.05;83.41
13612;BME280;6877;51.436;6.774;2023-05-24T05:51:13;101878.47;;;11.14;83.07
13612;BME280;6877;51.436;6.774;2023-05-24T05:53:39;101880.19;;;11.24;82.86
13612;BME280;6877;51.436;6.774;2023-05-24T05:56:05;101880.19;;;11.27;82.40
13612;BME280;6877;51.436;6.774;2023-05-24T05:58:37;101874.94;;;11.21;82.25
13612;BME280;6877;51.436;6.774;2023-05-24T06:01:04;101872.34;;;11.20;82.36
13612;BME280;6877;51.436;6.774;2023-05-24T06:03:30;101868.00;;;11.14;82.08
13612;BME280;6877;51.436;6.774;2023-05-24T06:06:01;101885.44;;;11.15;82.42
13612;BME280;6877;51.436;6.774;2023-05-24T06:08:28;101877.59;;;11.12;82.42
13612;BME280;6877;51.436;6.774;2023-05-24T06:11:00;101887.22;;;11.10;81.94
13612;BME280;6877;51.436;6.774;2023-05-24T06:13:27;101888.97;;;11.14;82.21
13612;BME280;6877;51.436;6.774;2023-05-24T06:15:54;101895.94;;;11.13;82.02
13612;BME280;6877;51.436;6.774;2023-05-24T06:18:20;101902.03;;;11.16;81.84
13612;BME280;6877;51.436;6.774;2023-05-24T06:20:46;101905.50;;;11.30;81.60
13612;BME280;6877;51.436;6.774;2023-05-24T06:23:13;101897.53;;;11.57;80.92
13612;BME280;6877;51.436;6.774;2023-05-24T06:25:40;101905.31;;;11.87;79.05
13612;BME280;6877;51.436;6.774;2023-05-24T06:28:09;101902.50;;;12.16;77.93
13612;BME280;6877;51.436;6.774;2023-05-24T06:30:35;101902.31;;;12.39;76.83
13612;BME280;6877;51.436;6.774;2023-05-24T06:33:07;101901.19;;;12.72;75.39
13612;BME280;6877;51.436;6.774;2023-05-24T06:35:33;101904.25;;;13.15;74.15
13612;BME280;6877;51.436;6.774;2023-05-24T06:38:00;101902.00;;;13.62;69.91
13612;BME280;6877;51.436;6.774;2023-05-24T06:40:26;101900.97;;;13.72;69.51
13612;BME280;6877;51.436;6.774;2023-05-24T06:42:57;101910.94;;;13.47;66.53
13612;BME280;6877;51.436;6.774;2023-05-24T06:45:24;101908.50;;;13.32;65.18
13612;BME280;6877;51.436;6.774;2023-05-24T06:47:50;101902.13;;;13.53;65.43
13612;BME280;6877;51.436;6.774;2023-05-24T06:50:22;101905.84;;;14.01;63.75
13612;BME280;6877;51.436;6.774;2023-05-24T06:52:48;101900.53;;;14.63;63.07
13612;BME280;6877;51.436;6.774;2023-05-24T06:55:15;101903.28;;;15.05;59.40
13612;BME280;6877;51.436;6.774;2023-05-24T06:57:41;101899.56;;;15.15;58.43
13612;BME280;6877;51.436;6.774;2023-05-24T07:00:08;101905.63;;;14.72;59.24
13612;BME280;6877;51.436;6.774;2023-05-24T07:02:42;101903.91;;;14.14;61.42
13612;BME280;6877;51.436;6.774;2023-05-24T07:05:08;101907.81;;;13.85;62.23
13612;BME280;6877;51.436;6.774;2023-05-24T07:07:38;101908.16;;;13.59;63.88
13612;BME280;6877;51.436;6.774;2023-05-24T07:10:29;101917.47;;;13.83;63.66
13612;BME280;6877;51.436;6.774;2023-05-24T07:12:58;101907.59;;;14.01;62.77
13612;BME280;6877;51.436;6.774;2023-05-24T07:15:41;101916.53;;;13.89;62.93
13612;BME280;6877;51.436;6.774;2023-05-24T07:18:07;101920.34;;;13.66;63.96
13612;BME280;6877;51.436;6.774;2023-05-24T07:20:34;101924.09;;;13.45;64.05
13612;BME280;6877;51.436;6.774;2023-05-24T07:23:00;101921.69;;;13.24;64.02
13612;BME280;6877;51.436;6.774;2023-05-24T07:25:29;101919.19;;;13.10;64.67
13612;BME280;6877;51.436;6.774;2023-05-24T07:27:56;101914.66;;;13.31;64.87
13612;BME280;6877;51.436;6.774;2023-05-24T07:30:23;101917.47;;;13.85;62.81
13612;BME280;6877;51.436;6.774;2023-05-24T07:32:49;101925.25;;;13.93;61.73
13612;BME280;6877;51.436;6.774;2023-05-24T07:35:16;101919.25;;;13.84;62.09
13612;BME280;6877;51.436;6.774;2023-05-24T07:37:48;101922.00;;;13.74;62.91
13612;BME280;6877;51.436;6.774;2023-05-24T07:40:14;101916.84;;;13.64;63.43
13612;BME280;6877;51.436;6.774;2023-05-24T07:42:46;101913.31;;;13.67;63.57
13612;BME280;6877;51.436;6.774;2023-05-24T07:45:12;101914.09;;;13.75;63.90
13612;BME280;6877;51.436;6.774;2023-05-24T07:47:39;101912.88;;;13.99;62.75
13612;BME280;6877;51.436;6.774;2023-05-24T07:50:06;101908.34;;;14.10;62.47
13612;BME280;6877;51.436;6.774;2023-05-24T07:52:32;101905.66;;;14.13;62.85
13612;BME280;6877;51.436;6.774;2023-05-24T07:54:59;101901.09;;;14.25;61.77
13612;BME280;6877;51.436;6.774;2023-05-24T07:57:25;101898.25;;;14.37;60.87
13612;BME280;6877;51.436;6.774;2023-05-24T07:59:52;101901.78;;;14.92;57.59
13612;BME280;6877;51.436;6.774;2023-05-24T08:02:18;101908.34;;;15.16;54.63
13612;BME280;6877;51.436;6.774;2023-05-24T08:04:45;101912.63;;;15.21;54.66
13612;BME280;6877;51.436;6.774;2023-05-24T08:07:11;101911.81;;;17.10;51.04
13612;BME280;6877;51.436;6.774;2023-05-24T08:09:38;101920.31;;;19.20;44.96
13612;BME280;6877;51.436;6.774;2023-05-24T08:12:10;101930.84;;;21.99;40.26
13612;BME280;6877;51.436;6.774;2023-05-24T08:14:36;101924.16;;;23.66;37.41
13612;BME280;6877;51.436;6.774;2023-05-24T08:17:03;101939.00;;;25.97;32.72
13612;BME280;6877;51.436;6.774;2023-05-24T08:19:29;101932.94;;;26.49;30.89
13612;BME280;6877;51.436;6.774;2023-05-24T08:22:01;101933.28;;;25.17;31.16
13612;BME280;6877;51.436;6.774;2023-05-24T08:24:35;101922.53;;;22.78;33.83
13612;BME280;6877;51.436;6.774;2023-05-24T08:27:07;101925.97;;;21.12;36.33
13612;BME280;6877;51.436;6.774;2023-05-24T08:29:38;101931.03;;;23.21;33.40
13612;BME280;6877;51.436;6.774;2023-05-24T08:32:10;101938.59;;;27.10;28.77
13612;BME280;6877;51.436;6.774;2023-05-24T08:34:41;101945.19;;;29.14;24.51
13612;BME280;6877;51.436;6.774;2023-05-24T08:37:14;101933.91;;;26.48;26.02
13612;BME280;6877;51.436;6.774;2023-05-24T08:39:44;101933.66;;;27.04;26.38
13612;BME280;6877;51.436;6.774;2023-05-24T08:42:16;101936.13;;;27.84;23.99
13612;BME280;6877;51.436;6.774;2023-05-24T08:44:58;101932.13;;;25.79;25.42
13612;BME280;6877;51.436;6.774;2023-05-24T08:47:29;101920.31;;;24.95;27.19
13612;BME280;6877;51.436;6.774;2023-05-24T08:49:57;101914.88;;;25.69;26.98
13612;BME280;6877;51.436;6.774;2023-05-24T08:52:24;101918.03;;;27.73;24.36
13612;BME280;6877;51.436;6.774;2023-05-24T08:54:52;101916.84;;;27.27;24.56
13612;BME280;6877;51.436;6.774;2023-05-24T08:57:18;101913.38;;;25.64;27.50
13612;BME280;6877;51.436;6.774;2023-05-24T08:59:45;101908.53;;;24.38;29.92
13612;BME280;6877;51.436;6.774;2023-05-24T09:02:17;101914.03;;;25.68;28.94
13612;BME280;6877;51.436;6.774;2023-05-24T09:04:51;101904.09;;;26.78;26.76
13612;BME280;6877;51.436;6.774;2023-05-24T09:07:20;101903.28;;;24.96;28.48
13612;BME280;6877;51.436;6.774;2023-05-24T09:09:59;101899.84;;;23.04;31.85
13612;BME280;6877;51.436;6.774;2023-05-24T09:12:29;101909.31;;;22.94;32.26
13612;BME280;6877;51.436;6.774;2023-05-24T09:15:04;101903.72;;;21.54;34.22
13612;BME280;6877;51.436;6.774;2023-05-24T09:17:31;101899.84;;;20.16;36.54
13612;BME280;6877;51.436;6.774;2023-05-24T09:20:07;101891.00;;;18.98;39.13
13612;BME280;6877;51.436;6.774;2023-05-24T09:22:41;101896.41;;;18.15;41.25
13612;BME280;6877;51.436;6.774;2023-05-24T09:25:08;101898.50;;;17.74;42.32
13612;BME280;6877;51.436;6.774;2023-05-24T09:27:36;101894.84;;;18.10;42.25
13612;BME280;6877;51.436;6.774;2023-05-24T09:30:09;101895.75;;;18.88;39.56
13612;BME280;6877;51.436;6.774;2023-05-24T09:32:37;101902.09;;;19.09;38.78
13612;BME280;6877;51.436;6.774;2023-05-24T09:35:08;101892.47;;;20.23;36.47
13612;BME280;6877;51.436;6.774;2023-05-24T09:37:35;101902.50;;;21.01;34.59
13612;BME280;6877;51.436;6.774;2023-05-24T09:40:04;101899.88;;;21.40;33.68
13612;BME280;6877;51.436;6.774;2023-05-24T09:42:37;101895.38;;;22.53;31.94
13612;BME280;6877;51.436;6.774;2023-05-24T09:45:06;101902.94;;;24.26;28.91
13612;BME280;6877;51.436;6.774;2023-05-24T09:47:40;101906.00;;;25.25;28.16
13612;BME280;6877;51.436;6.774;2023-05-24T09:50:17;101899.47;;;26.41;26.87
13612;BME280;6877;51.436;6.774;2023-05-24T09:52:43;101902.41;;;27.41;25.48
13612;BME280;6877;51.436;6.774;2023-05-24T09:55:14;101897.03;;;27.41;25.23
13612;BME280;6877;51.436;6.774;2023-05-24T09:57:51;101902.59;;;26.07;25.90
13612;BME280;6877;51.436;6.774;2023-05-24T10:00:23;101883.53;;;24.23;28.80
13612;BME280;6877;51.436;6.774;2023-05-24T10:03:06;101874.25;;;21.94;31.79
13612;BME280;6877;51.436;6.774;2023-05-24T10:05:41;101874.81;;;20.00;35.36
13612;BME280;6877;51.436;6.774;2023-05-24T10:08:10;101882.69;;;19.07;37.41
13612;BME280;6877;51.436;6.774;2023-05-24T10:10:36;101868.72;;;18.50;38.82
13612;BME280;6877;51.436;6.774;2023-05-24T10:13:03;101881.69;;;18.06;40.05
13612;BME280;6877;51.436;6.774;2023-05-24T10:15:35;101883.44;;;18.06;39.00
13612;BME280;6877;51.436;6.774;2023-05-24T10:18:01;101884.66;;;17.96;38.39
13612;BME280;6877;51.436;6.774;2023-05-24T10:20:33;101884.38;;;17.75;38.39
13612;BME280;6877;51.436;6.774;2023-05-24T10:23:08;101890.44;;;17.80;38.88
13612;BME280;6877;51.436;6.774;2023-05-24T10:25:49;101885.72;;;17.90;39.38
13612;BME280;6877;51.436;6.774;2023-05-24T10:28:22;101878.75;;;18.42;38.33
13612;BME280;6877;51.436;6.774;2023-05-24T10:31:14;101884.25;;;19.38;36.78
13612;BME280;6877;51.436;6.774;2023-05-24T10:33:44;101876.78;;;20.81;34.21
13612;BME280;6877;51.436;6.774;2023-05-24T10:36:18;101874.41;;;22.28;30.83
13612;BME280;6877;51.436;6.774;2023-05-24T10:38:45;101879.84;;;22.43;30.28
13612;BME280;6877;51.436;6.774;2023-05-24T10:41:12;101872.16;;;22.20;30.99
13612;BME280;6877;51.436;6.774;2023-05-24T10:43:47;101877.50;;;22.55;30.50
13612;BME280;6877;51.436;6.774;2023-05-24T10:46:14;101872.03;;;22.58;30.36
13612;BME280;6877;51.436;6.774;2023-05-24T10:48:58;101866.84;;;21.63;31.41
13612;BME280;6877;51.436;6.774;2023-05-24T10:51:34;101875.06;;;20.16;33.73
13612;BME280;6877;51.436;6.774;2023-05-24T10:54:17;101879.16;;;19.55;35.06
13612;BME280;6877;51.436;6.774;2023-05-24T10:56:49;101871.63;;;19.19;36.14
13612;BME280;6877;51.436;6.774;2023-05-24T11:02:00;101872.53;;;18.17;38.50
13612;BME280;6877;51.436;6.774;2023-05-24T11:04:32;101873.97;;;17.69;39.51
13612;BME280;6877;51.436;6.774;2023-05-24T11:07:03;101871.31;;;17.08;40.78
13612;BME280;6877;51.436;6.774;2023-05-24T11:09:38;101861.72;;;16.37;42.77
13612;BME280;6877;51.436;6.774;2023-05-24T11:12:17;101866.22;;;16.32;43.00
13612;BME280;6877;51.436;6.774;2023-05-24T11:14:51;101872.28;;;16.37;43.49
13612;BME280;6877;51.436;6.774;2023-05-24T11:17:23;101868.06;;;16.30;43.61
13612;BME280;6877;51.436;6.774;2023-05-24T11:19:51;101872.09;;;16.08;44.15
13612;BME280;6877;51.436;6.774;2023-05-24T11:22:24;101870.94;;;15.82;44.96
13612;BME280;6877;51.436;6.774;2023-05-24T11:24:55;101866.91;;;15.64;45.45
13612;BME280;6877;51.436;6.774;2023-05-24T11:27:27;101872.53;;;15.49;46.79
13612;BME280;6877;51.436;6.774;2023-05-24T11:29:56;101864.00;;;15.36;47.07
13612;BME280;6877;51.436;6.774;2023-05-24T11:32:28;101877.06;;;15.42;47.24
13612;BME280;6877;51.436;6.774;2023-05-24T11:34:54;101874.56;;;15.35;47.82
13612;BME280;6877;51.436;6.774;2023-05-24T11:37:21;101868.28;;;15.40;48.16
13612;BME280;6877;51.436;6.774;2023-05-24T11:39:51;101862.69;;;15.56;48.09
13612;BME280;6877;51.436;6.774;2023-05-24T11:42:18;101866.56;;;15.81;47.64
13612;BME280;6877;51.436;6.774;2023-05-24T11:44:47;101872.22;;;16.05;47.48
13612;BME280;6877;51.436;6.774;2023-05-24T11:47:14;101866.31;;;16.29;46.78
13612;BME280;6877;51.436;6.774;2023-05-24T11:49:41;101866.56;;;16.54;45.98
13612;BME280;6877;51.436;6.774;2023-05-24T11:52:07;101867.44;;;16.55;46.03
13612;BME280;6877;51.436;6.774;2023-05-24T11:54:34;101864.72;;;16.58;46.47
13612;BME280;6877;51.436;6.774;2023-05-24T11:57:11;101866.88;;;16.42;45.86
13612;BME280;6877;51.436;6.774;2023-05-24T11:59:40;101859.91;;;16.75;45.25
13612;BME280;6877;51.436;6.774;2023-05-24T12:02:06;101864.53;;;17.31;43.68
13612;BME280;6877;51.436;6.774;2023-05-24T12:04:39;101864.81;;;17.81;42.94
13612;BME280;6877;51.436;6.774;2023-05-24T12:07:09;101869.81;;;18.18;41.92
13612;BME280;6877;51.436;6.774;2023-05-24T12:09:36;101860.19;;;18.42;41.55
13612;BME280;6877;51.436;6.774;2023-05-24T12:12:02;101870.06;;;18.90;40.65
13612;BME280;6877;51.436;6.774;2023-05-24T12:14:32;101871.59;;;19.44;39.76
13612;BME280;6877;51.436;6.774;2023-05-24T12:16:58;101867.91;;;19.96;37.80
13612;BME280;6877;51.436;6.774;2023-05-24T12:19:30;101869.00;;;19.90;37.97
13612;BME280;6877;51.436;6.774;2023-05-24T12:22:00;101880.19;;;19.28;39.38
13612;BME280;6877;51.436;6.774;2023-05-24T12:24:30;101866.47;;;18.66;39.91
13612;BME280;6877;51.436;6.774;2023-05-24T12:26:58;101869.72;;;18.21;41.22
13612;BME280;6877;51.436;6.774;2023-05-24T12:29:33;101859.13;;;18.21;41.46
13612;BME280;6877;51.436;6.774;2023-05-24T12:32:11;101862.56;;;18.50;40.67
13612;BME280;6877;51.436;6.774;2023-05-24T12:34:48;101866.66;;;19.10;39.88
13612;BME280;6877;51.436;6.774;2023-05-24T12:37:17;101863.38;;;19.52;39.04
13612;BME280;6877;51.436;6.774;2023-05-24T12:39:48;101860.47;;;19.82;38.23
13612;BME280;6877;51.436;6.774;2023-05-24T12:42:15;101853.09;;;20.10;37.74
13612;BME280;6877;51.436;6.774;2023-05-24T12:44:42;101855.50;;;19.73;38.25
13612;BME280;6877;51.436;6.774;2023-05-24T12:47:10;101851.41;;;19.40;38.74
13612;BME280;6877;51.436;6.774;2023-05-24T12:49:37;101855.75;;;19.43;38.74
13612;BME280;6877;51.436;6.774;2023-05-24T12:52:08;101856.09;;;19.34;38.42
13612;BME280;6877;51.436;6.774;2023-05-24T12:54:37;101857.59;;;19.41;38.59
13612;BME280;6877;51.436;6.774;2023-05-24T12:57:03;101857.66;;;19.39;38.80
13612;BME280;6877;51.436;6.774;2023-05-24T12:59:32;101851.88;;;19.52;38.25
13612;BME280;6877;51.436;6.774;2023-05-24T13:01:58;101852.56;;;19.57;38.23
13612;BME280;6877;51.436;6.774;2023-05-24T13:04:25;101847.19;;;19.35;38.69
13612;BME280;6877;51.436;6.774;2023-05-24T13:06:55;101847.13;;;19.13;38.92
13612;BME280;6877;51.436;6.774;2023-05-24T13:09:27;101843.16;;;19.01;39.37
13612;BME280;6877;51.436;6.774;2023-05-24T13:11:57;101841.56;;;18.44;40.57
13612;BME280;6877;51.436;6.774;2023-05-24T13:14:28;101850.69;;;18.09;41.57
13612;BME280;6877;51.436;6.774;2023-05-24T13:17:00;101854.53;;;17.70;42.17
13612;BME280;6877;51.436;6.774;2023-05-24T13:19:26;101847.97;;;17.54;42.84
13612;BME280;6877;51.436;6.774;2023-05-24T13:21:52;101849.28;;;17.69;42.50
13612;BME280;6877;51.436;6.774;2023-05-24T13:24:19;101845.94;;;18.20;41.31
13612;BME280;6877;51.436;6.774;2023-05-24T13:26:45;101840.06;;;18.63;40.24
13612;BME280;6877;51.436;6.774;2023-05-24T13:29:12;101841.31;;;18.78;39.96
13612;BME280;6877;51.436;6.774;2023-05-24T13:31:44;101841.69;;;18.92;39.97
13612;BME280;6877;51.436;6.774;2023-05-24T13:34:15;101842.78;;;18.87;40.36